createdAt,value
2023-07-02T00:00:44.956Z,17.96
2023-07-02T00:10:49.638Z,17.82
2023-07-02T00:20:52.837Z,17.87
2023-07-02T00:30:57.276Z,17.86
2023-07-02T00:41:00.697Z,17.76
2023-07-02T00:51:05.381Z,17.70
2023-07-02T01:01:08.694Z,17.55
2023-07-02T01:11:13.252Z,17.50
2023-07-02T01:21:17.734Z,17.30
2023-07-02T01:31:20.534Z,17.09
2023-07-02T01:41:24.887Z,17.17
2023-07-02T01:51:27.902Z,17.04
2023-07-02T02:01:33.980Z,17.04
2023-07-02T02:11:37.287Z,17.01
2023-07-02T02:21:41.808Z,16.89
2023-07-02T02:31:44.929Z,16.73
2023-07-02T02:41:49.789Z,16.46
2023-07-02T02:51:56.804Z,16.19
2023-07-02T03:02:01.622Z,16.06
2023-07-02T03:12:05.598Z,15.95
2023-07-02T03:22:10.112Z,15.83
2023-07-02T03:32:13.174Z,15.87
2023-07-02T03:42:18.317Z,15.85
2023-07-02T03:52:21.398Z,15.77
2023-07-02T04:02:25.915Z,15.81
2023-07-02T04:12:28.949Z,15.76
2023-07-02T04:22:33.485Z,15.72
2023-07-02T04:32:36.611Z,15.89
2023-07-02T04:42:42.216Z,16.07
2023-07-02T04:52:45.594Z,16.21
2023-07-02T05:02:50.054Z,16.50
2023-07-02T05:12:53.238Z,16.84
2023-07-02T05:22:57.624Z,16.93
2023-07-02T05:33:00.499Z,17.23
2023-07-02T05:43:05.205Z,17.41
2023-07-02T05:53:08.277Z,17.69
2023-07-02T06:03:16.607Z,17.98
2023-07-02T06:13:19.691Z,18.25
2023-07-02T06:23:24.276Z,18.53
2023-07-02T06:33:27.287Z,18.74
2023-07-02T06:43:31.629Z,19.04
2023-07-02T06:53:34.714Z,19.38
2023-07-02T07:03:39.110Z,19.52
2023-07-02T07:13:42.651Z,19.64
2023-07-02T07:23:47.127Z,19.76
2023-07-02T07:33:50.380Z,20.20
2023-07-02T07:43:54.803Z,20.04
2023-07-02T07:53:57.938Z,20.04
2023-07-02T08:04:02.566Z,20.59
2023-07-02T08:14:05.940Z,20.96
2023-07-02T08:24:10.438Z,20.99
2023-07-02T08:34:13.377Z,20.57
2023-07-02T08:44:22.251Z,20.61
2023-07-02T08:54:25.237Z,21.23
2023-07-02T09:04:30.303Z,21.43
2023-07-02T09:14:34.011Z,21.28
2023-07-02T09:24:38.322Z,21.66
2023-07-02T09:34:43.047Z,21.88
2023-07-02T09:44:48.437Z,22.08
2023-07-02T09:54:51.544Z,21.95
2023-07-02T10:04:58.171Z,21.72
2023-07-02T10:15:01.472Z,22.09
2023-07-02T10:25:06.526Z,21.95
2023-07-02T10:35:16.549Z,22.26
2023-07-02T10:45:21.896Z,21.99
2023-07-02T10:55:26.556Z,22.00
2023-07-02T11:05:31.105Z,22.38
2023-07-02T11:15:38.390Z,22.53
2023-07-02T11:25:42.731Z,21.90
2023-07-02T11:35:45.920Z,22.21
2023-07-02T11:45:50.877Z,22.32
2023-07-02T11:55:54.126Z,22.99
2023-07-02T12:05:58.471Z,23.64
2023-07-02T12:16:01.875Z,22.29
2023-07-02T12:26:06.409Z,22.32
2023-07-02T12:36:09.459Z,23.14
2023-07-02T12:46:14.788Z,23.10
2023-07-02T12:56:18.102Z,23.56
2023-07-02T13:06:22.519Z,24.03
2023-07-02T13:16:25.983Z,24.79
2023-07-02T13:26:30.380Z,23.99
2023-07-02T13:36:33.607Z,24.36
2023-07-02T13:46:38.055Z,24.79
2023-07-02T13:56:41.206Z,25.07
2023-07-02T14:06:46.061Z,26.07
2023-07-02T14:16:49.161Z,25.06
2023-07-02T14:26:53.764Z,25.37
2023-07-02T14:36:58.191Z,25.68
2023-07-02T14:47:02.850Z,26.52
2023-07-02T14:57:06.705Z,26.60
2023-07-02T15:07:11.108Z,26.28
2023-07-02T15:17:14.191Z,25.81
2023-07-02T15:27:18.601Z,25.26
2023-07-02T15:37:21.614Z,24.99
2023-07-02T15:47:26.418Z,24.70
2023-07-02T15:57:29.632Z,24.65
2023-07-02T16:07:33.806Z,24.28
2023-07-02T16:17:37.132Z,24.01
2023-07-02T16:27:47.460Z,23.83
2023-07-02T16:37:53.596Z,23.89
2023-07-02T16:47:58.743Z,23.84
2023-07-02T16:58:02.501Z,23.81
2023-07-02T17:08:07.159Z,23.71
2023-07-02T17:18:10.326Z,23.39
2023-07-02T17:28:14.921Z,23.03
2023-07-02T17:38:18.004Z,22.84
2023-07-02T17:48:25.842Z,22.66
2023-07-02T17:58:28.904Z,22.29
2023-07-02T18:08:33.389Z,21.90
2023-07-02T18:18:36.517Z,21.73
2023-07-02T18:28:41.071Z,21.64
2023-07-02T18:38:44.231Z,21.51
2023-07-02T18:48:48.693Z,21.22
2023-07-02T18:58:51.928Z,20.99
2023-07-02T19:08:56.412Z,20.89
2023-07-02T19:18:59.572Z,20.71
2023-07-02T19:29:04.410Z,20.33
2023-07-02T19:39:07.735Z,20.13
2023-07-02T19:49:12.375Z,19.90
2023-07-02T19:59:15.532Z,19.61
2023-07-02T20:09:19.891Z,19.43
2023-07-02T20:19:22.892Z,19.10
2023-07-02T20:29:27.427Z,19.00
2023-07-02T20:39:30.544Z,18.86
2023-07-02T20:49:35.011Z,18.77
2023-07-02T20:59:38.060Z,18.33
2023-07-02T21:09:42.452Z,18.01
2023-07-02T21:19:45.256Z,17.86
2023-07-02T21:29:49.771Z,17.62
2023-07-02T21:39:52.711Z,17.62
2023-07-02T21:49:57.084Z,17.65
2023-07-02T22:00:00.162Z,17.60
2023-07-02T22:10:05.472Z,17.39
2023-07-02T22:20:12.401Z,17.14
2023-07-02T22:30:16.952Z,17.03
2023-07-02T22:40:19.954Z,16.83
2023-07-02T22:50:24.532Z,16.67
2023-07-02T23:00:27.345Z,16.64
2023-07-02T23:10:32.203Z,16.58
2023-07-02T23:20:37.895Z,16.59
2023-07-02T23:30:43.072Z,16.52
2023-07-02T23:40:46.176Z,16.51
2023-07-02T23:50:50.663Z,16.40
